Terminal Aerodrome Forecast
Issued by NWS

Current Version | Previous Version | Text Only | Print | Product List | Glossary On
Versions: 1 2 3 4 5 6 7 8 9 10 11 12 13 14 15 16 17 18 19
000
FTUS42 KFFC 181300 AAB
TAFFTY
TAF AMD
KFTY 181311Z 1813/1912 01003KT P6SM SCT005 SCT010
     FM181400 04005KT P6SM SCT025
     FM181700 34006KT P6SM SCT045
     FM190500 02005KT P6SM SCT025
     FM190900 05005KT P6SM OVC010=

USA.gov is the U.S. government's official web portal to all federal, state and local government web resources and services.